createdAt,value
2022-08-25T00:00:43.877Z,8.30
2022-08-25T00:05:48.336Z,8.50
2022-08-25T00:11:02.896Z,9.20
2022-08-25T00:16:07.653Z,10.80
2022-08-25T00:21:11.562Z,9.00
2022-08-25T00:26:17.794Z,10.40
2022-08-25T00:31:23.765Z,12.90
2022-08-25T00:36:41.865Z,11.00
2022-08-25T00:41:45.286Z,8.80
2022-08-25T00:46:53.335Z,10.00
2022-08-25T00:52:10.955Z,8.30
2022-08-25T00:57:22.075Z,10.40
2022-08-25T01:02:39.074Z,9.40
2022-08-25T01:07:44.858Z,8.40
2022-08-25T01:12:51.219Z,9.00
2022-08-25T01:17:58.206Z,11.60
2022-08-25T01:23:03.898Z,10.40
2022-08-25T01:28:07.622Z,9.80
2022-08-25T01:33:12.194Z,9.40
2022-08-25T01:38:16.911Z,8.60
2022-08-25T01:43:39.364Z,10.60
2022-08-25T01:48:42.665Z,8.60
2022-08-25T01:53:46.135Z,11.80
2022-08-25T01:58:50.240Z,11.40
2022-08-25T02:03:56.340Z,9.90
2022-08-25T02:09:11.184Z,10.40
2022-08-25T02:14:17.260Z,8.30
2022-08-25T02:19:24.517Z,11.30
2022-08-25T02:24:28.510Z,10.10
2022-08-25T02:29:32.393Z,8.10
2022-08-25T02:34:35.671Z,10.70
2022-08-25T02:39:39.035Z,10.20
2022-08-25T02:44:42.553Z,9.30
2022-08-25T02:49:46.170Z,12.60
2022-08-25T02:54:49.584Z,8.10
2022-08-25T02:59:53.922Z,9.80
2022-08-25T03:04:57.454Z,9.00
2022-08-25T03:10:06.587Z,7.90
2022-08-25T03:15:13.231Z,8.70
2022-08-25T03:20:17.363Z,14.10
2022-08-25T03:25:39.458Z,8.00
2022-08-25T03:30:44.302Z,11.80
2022-08-25T03:35:48.074Z,12.00
2022-08-25T03:40:52.893Z,13.90
2022-08-25T03:45:56.329Z,9.80
2022-08-25T03:50:59.876Z,10.10
2022-08-25T03:56:03.973Z,11.80
2022-08-25T04:01:07.494Z,9.80
2022-08-25T04:06:11.416Z,10.50
2022-08-25T04:11:19.192Z,10.20
2022-08-25T04:16:31.598Z,11.50
2022-08-25T04:21:36.666Z,11.00
2022-08-25T04:26:47.558Z,11.10
2022-08-25T04:31:52.591Z,13.30
2022-08-25T04:36:55.988Z,9.90
2022-08-25T04:42:01.098Z,11.80
2022-08-25T04:47:05.589Z,11.90
2022-08-25T04:52:14.346Z,10.90
2022-08-25T04:57:17.865Z,11.40
2022-08-25T05:02:21.693Z,11.40
2022-08-25T05:07:25.310Z,12.70
2022-08-25T05:12:28.995Z,10.00
2022-08-25T05:17:32.833Z,9.60
2022-08-25T05:22:36.277Z,25.10
2022-08-25T05:27:39.896Z,32.10
2022-08-25T05:32:43.571Z,35.10
2022-08-25T05:37:47.858Z,25.40
2022-08-25T05:42:51.777Z,19.60
2022-08-25T05:47:58.225Z,28.70
2022-08-25T05:53:01.667Z,23.40
2022-08-25T05:58:06.798Z,14.90
2022-08-25T06:03:13.810Z,16.00
2022-08-25T06:08:17.334Z,12.40
2022-08-25T06:13:26.959Z,15.80
2022-08-25T06:18:33.186Z,16.80
2022-08-25T06:23:38.602Z,12.00
2022-08-25T06:28:43.579Z,9.60
2022-08-25T06:33:47.112Z,10.60
2022-08-25T06:38:50.617Z,9.50
2022-08-25T06:43:56.338Z,11.50
2022-08-25T06:49:09.023Z,11.10
2022-08-25T06:54:13.278Z,13.50
2022-08-25T06:59:17.771Z,9.50
2022-08-25T07:04:21.722Z,8.30
2022-08-25T07:09:25.545Z,10.50
2022-08-25T07:14:29.080Z,9.70
2022-08-25T07:19:32.816Z,10.30
2022-08-25T07:24:36.290Z,11.70
2022-08-25T07:29:42.237Z,9.10
2022-08-25T07:35:04.725Z,8.90
2022-08-25T07:40:11.656Z,10.10
2022-08-25T07:45:17.393Z,7.50
2022-08-25T07:50:25.109Z,11.50
2022-08-25T07:55:30.672Z,12.70
2022-08-25T08:00:37.076Z,10.20
2022-08-25T08:05:42.106Z,8.90
2022-08-25T08:11:03.216Z,11.00
2022-08-25T08:16:13.766Z,9.00
2022-08-25T08:21:23.276Z,10.10
2022-08-25T08:26:48.318Z,9.70
2022-08-25T08:31:52.267Z,9.80
2022-08-25T08:36:56.258Z,9.30
2022-08-25T08:42:27.529Z,9.20
2022-08-25T08:47:56.326Z,11.70
2022-08-25T08:53:10.960Z,8.90
2022-08-25T08:58:26.268Z,8.20
2022-08-25T09:03:45.476Z,10.70
2022-08-25T09:09:04.047Z,9.40
2022-08-25T09:14:41.764Z,13.30
2022-08-25T09:20:18.597Z,14.70
2022-08-25T09:25:54.083Z,13.50
2022-08-25T09:31:13.894Z,13.80
2022-08-25T09:36:17.748Z,13.20
2022-08-25T09:41:53.117Z,12.90
2022-08-25T09:47:06.066Z,9.80
2022-08-25T09:52:32.294Z,11.00
2022-08-25T09:57:47.386Z,11.50
2022-08-25T10:03:21.534Z,11.30
2022-08-25T10:08:37.943Z,11.30
2022-08-25T10:13:48.939Z,14.70
2022-08-25T10:19:05.250Z,13.40
2022-08-25T10:24:13.494Z,13.40
2022-08-25T10:29:48.324Z,14.80
2022-08-25T10:34:58.272Z,14.80
2022-08-25T10:40:30.762Z,11.60
2022-08-25T10:46:10.470Z,14.30
2022-08-25T10:51:29.019Z,15.90
2022-08-25T10:57:02.025Z,15.40
2022-08-25T11:02:14.449Z,9.60
2022-08-25T11:07:35.986Z,18.70
2022-08-25T11:12:53.482Z,14.40
2022-08-25T11:18:15.997Z,14.80
2022-08-25T11:23:31.595Z,17.30
2022-08-25T11:29:05.998Z,16.00
2022-08-25T11:34:15.602Z,17.50
2022-08-25T11:40:03.923Z,15.10
2022-08-25T11:46:10.475Z,14.60
2022-08-25T11:51:49.297Z,15.90
2022-08-25T11:57:08.888Z,18.90
2022-08-25T12:02:31.474Z,23.80
2022-08-25T12:08:11.529Z,15.60
2022-08-25T12:13:41.763Z,19.50
2022-08-25T12:18:46.572Z,19.10
2022-08-25T12:24:14.200Z,18.20
2022-08-25T12:29:33.174Z,19.20
2022-08-25T12:34:54.611Z,17.90
2022-08-25T12:40:03.323Z,16.80
2022-08-25T12:45:14.361Z,15.90
2022-08-25T12:50:48.473Z,16.80
2022-08-25T12:56:06.233Z,12.90
2022-08-25T13:01:35.287Z,17.20
2022-08-25T13:07:23.605Z,18.10
2022-08-25T13:13:14.228Z,18.60
2022-08-25T13:18:32.795Z,33.60
2022-08-25T13:23:40.718Z,18.80
2022-08-25T13:28:54.747Z,18.70
2022-08-25T13:34:05.671Z,17.20
2022-08-25T13:44:52.057Z,15.60
2022-08-25T13:50:16.809Z,16.10
2022-08-25T13:55:38.228Z,14.90
2022-08-25T14:01:23.327Z,15.80
2022-08-25T14:06:43.169Z,16.70
2022-08-25T14:11:58.765Z,19.90
2022-08-25T14:17:28.708Z,16.10
2022-08-25T14:22:35.289Z,20.50
2022-08-25T14:28:06.677Z,16.30
2022-08-25T14:33:10.621Z,18.10
2022-08-25T14:38:14.984Z,17.40
2022-08-25T14:43:20.901Z,14.00
2022-08-25T14:48:35.919Z,17.80
2022-08-25T14:53:40.324Z,19.40
2022-08-25T14:58:51.570Z,17.10
2022-08-25T15:04:11.049Z,21.00
2022-08-25T15:09:18.466Z,18.30
2022-08-25T15:14:29.213Z,13.70
2022-08-25T15:19:37.741Z,24.00
2022-08-25T15:24:42.369Z,18.60
2022-08-25T15:29:46.056Z,18.10
2022-08-25T15:34:50.434Z,14.00
2022-08-25T15:39:53.960Z,20.40
2022-08-25T15:44:57.357Z,16.70
2022-08-25T15:50:15.141Z,22.80
2022-08-25T15:55:19.975Z,21.50
2022-08-25T16:00:23.780Z,20.40
2022-08-25T16:05:29.627Z,18.00
2022-08-25T16:10:40.145Z,24.10
2022-08-25T16:15:53.144Z,19.80
2022-08-25T16:20:57.920Z,26.20
2022-08-25T16:26:05.944Z,19.60
2022-08-25T16:31:12.456Z,20.40
2022-08-25T16:36:21.531Z,21.80
2022-08-25T16:41:34.323Z,17.60
2022-08-25T16:46:42.140Z,17.50
2022-08-25T16:51:48.014Z,19.80
2022-08-25T16:56:58.416Z,16.90
2022-08-25T17:02:02.350Z,24.30
2022-08-25T17:07:07.908Z,20.30
2022-08-25T17:12:11.779Z,24.20
2022-08-25T17:17:15.501Z,17.60
2022-08-25T17:22:19.529Z,22.30
2022-08-25T17:27:23.762Z,16.70
2022-08-25T17:32:28.976Z,19.00
2022-08-25T17:37:34.276Z,16.80
2022-08-25T17:42:38.099Z,17.30
2022-08-25T17:47:41.420Z,16.90
2022-08-25T17:52:45.328Z,18.80
2022-08-25T17:57:50.700Z,20.30
2022-08-25T18:02:54.107Z,22.20
2022-08-25T18:07:57.936Z,17.60
2022-08-25T18:13:02.429Z,17.30
2022-08-25T18:18:06.419Z,16.30
2022-08-25T18:23:10.020Z,19.90
2022-08-25T18:28:13.363Z,14.60
2022-08-25T18:33:19.277Z,13.60
2022-08-25T18:38:41.454Z,17.80
2022-08-25T18:43:46.410Z,17.50
2022-08-25T18:48:52.775Z,17.70
2022-08-25T18:54:00.871Z,15.00
2022-08-25T18:59:05.100Z,15.50
2022-08-25T19:04:10.101Z,14.90
2022-08-25T19:09:13.534Z,18.10
2022-08-25T19:14:19.381Z,18.70
2022-08-25T19:19:22.797Z,18.50
2022-08-25T19:24:26.481Z,17.80
2022-08-25T19:29:31.572Z,18.50
2022-08-25T19:34:42.927Z,14.50
2022-08-25T19:39:52.718Z,20.80
2022-08-25T19:44:56.733Z,17.50
2022-08-25T19:50:00.089Z,20.60
2022-08-25T19:55:04.413Z,19.40
2022-08-25T20:00:15.965Z,25.30
2022-08-25T20:05:23.909Z,19.70
2022-08-25T20:10:33.279Z,24.70
2022-08-25T20:15:45.346Z,18.00
2022-08-25T20:20:48.815Z,19.90
2022-08-25T20:25:52.234Z,21.30
2022-08-25T20:30:56.560Z,25.90
2022-08-25T20:35:59.978Z,19.90
2022-08-25T20:41:03.510Z,20.80
2022-08-25T20:46:09.374Z,25.50
2022-08-25T20:51:13.456Z,21.40
2022-08-25T20:56:20.603Z,20.70
2022-08-25T21:01:38.003Z,19.90
2022-08-25T21:06:45.755Z,16.60
2022-08-25T21:11:53.490Z,22.00
2022-08-25T21:16:56.917Z,17.60
2022-08-25T21:22:00.813Z,21.00
2022-08-25T21:27:04.565Z,26.80
2022-08-25T21:32:08.264Z,20.80
2022-08-25T21:37:13.301Z,21.20
2022-08-25T21:42:17.329Z,20.60
2022-08-25T21:47:21.701Z,20.80
2022-08-25T21:52:26.716Z,22.60
2022-08-25T21:57:30.543Z,20.10
2022-08-25T22:02:33.994Z,17.30
2022-08-25T22:07:44.049Z,21.50
2022-08-25T22:12:49.512Z,18.50
2022-08-25T22:17:53.106Z,23.60
2022-08-25T22:22:56.420Z,19.90
2022-08-25T22:27:59.818Z,19.50
2022-08-25T22:33:04.110Z,19.20
2022-08-25T22:38:12.490Z,21.00
2022-08-25T22:43:16.216Z,20.30
2022-08-25T22:48:20.038Z,15.20
2022-08-25T22:53:24.681Z,19.50
2022-08-25T22:58:29.539Z,15.70
2022-08-25T23:03:33.086Z,17.60
2022-08-25T23:08:40.617Z,18.40
2022-08-25T23:13:46.550Z,18.00
2022-08-25T23:18:50.250Z,22.10
2022-08-25T23:23:54.353Z,17.30
2022-08-25T23:28:58.000Z,17.90
2022-08-25T23:34:02.817Z,15.70
2022-08-25T23:39:07.737Z,20.00
2022-08-25T23:44:17.103Z,18.10
2022-08-25T23:49:24.208Z,12.30
2022-08-25T23:54:31.182Z,17.20
2022-08-25T23:59:35.376Z,17.40
